Frankenthal- Eppstein (101 m) : 23.04.2018
Datum Zeit
(MESZ)
Temp.
(2 m)
Temp.
(20 cm)
Luftfeuchte Blattnässe Nieder-
schlag
Wind Zeit
(MESZ)
[°C] [°C] [%] [%] [mm] [m/s]
23.04.2018 03:20 16.3 13.9 63 4 0.0 0.3 03:20
  03:15 16.3 13.5 63 4 0.0 0.0 03:15
  03:10 16.3 13.2 63 4 0.0 0.0 03:10
  03:05 16.3 13.1 63 5 0.0 0.0 03:05
  03:00 16.3 13.0 62 5 0.0 0.0 03:00
  02:55 16.4 13.1 62 7 0.0 0.0 02:55
  02:50 16.6 13.2 61 6 0.0 0.0 02:50
  02:45 16.7 13.3 61 5 0.0 0.0 02:45
  02:40 16.8 13.4 61 5 0.0 0.0 02:40
  02:35 17.0 13.4 60 5 0.0 0.0 02:35
  02:30 17.2 13.6 59 5 0.0 0.0 02:30
  02:25 17.3 13.8 59 5 0.0 0.0 02:25
  02:20 17.4 13.9 59 4 0.0 0.0 02:20
  02:15 17.5 14.0 59 4 0.0 0.0 02:15
  02:10 17.5 14.0 59 4 0.0 0.0 02:10
  02:05 17.4 14.0 60 4 0.0 0.0 02:05
  02:00 17.4 14.3 60 5 0.0 0.0 02:00
  01:55 17.5 14.4 59 5 0.0 0.0 01:55
  01:50 17.6 14.7 57 4 0.0 0.0 01:50
  01:45 18.0 15.1 57 5 0.0 0.0 01:45
  01:40 18.3 15.4 57 4 0.0 0.1 01:40
  01:35 18.2 15.3 56 4 0.0 0.2 01:35
  01:30 18.5 15.6 56 4 0.0 0.4 01:30
  01:25 18.6 15.9 56 4 0.0 0.8 01:25
23.04.2018 01:20 18.9 16.3 56 4 0.0 0.1 01:20
  01:15 19.1 16.6 55 4 0.0 0.0 01:15
  01:10 19.3 16.9 54 4 0.0 0.2 01:10
  01:05 19.5 17.3 54 4 0.0 0.2 01:05
  01:00 19.6 17.7 53 3 0.0 0.0 01:00
  00:55 19.7 17.9 53 3 0.0 0.2 00:55
  00:50 19.8 18.1 53 3 0.0 0.4 00:50
  00:45 19.8 18.1 53 3 0.0 0.1 00:45
  00:40 20.0 18.3 53 3 0.0 0.0 00:40
  00:35 20.1 18.5 53 3 0.0 0.2 00:35
  00:30 20.1 18.5 53 3 0.0 0.2 00:30
  00:25 20.1 18.3 53 3 0.0 0.5 00:25
  00:20 20.2 18.4 52 3 0.0 0.0 00:20
  00:15 20.3 18.5 52 3 0.0 0.0 00:15
  00:10 20.6 18.8 51 3 0.0 0.0 00:10
  00:05 20.9 19.0 50 3 0.0 0.3 00:05
  00:00 21.0 19.2 49 3 0.0 0.6 00:00
22.04.2018 23:55 21.1 19.0 49 3 0.0 0.6 23:55
  23:50 21.1 18.8 50 3 0.0 0.6 23:50
  23:45 21.3 19.0 49 3 0.0 0.0 23:45
  23:40 21.5 19.4 48 3 0.0 0.1 23:40
  23:35 21.8 19.6 48 3 0.0 0.2 23:35
  23:30 22.0 20.0 47 3 0.0 0.1 23:30
  23:25 22.2 20.3 47 3 0.0 0.5 23:25
  23:20 22.4 20.5 46 3 0.0 0.2 23:20
  23:15 22.6 20.8 46 3 0.0 0.1 23:15
  23:10 23.0 21.2 44 3 0.0 0.4 23:10
  23:05 23.1 21.4 43 3 0.0 1.1 23:05
  23:00 23.0 21.2 43 3 0.0 1.0 23:00
  22:55 22.9 21.1 44 3 0.0 1.2 22:55
  22:50 22.9 21.1 44 3 0.0 0.5 22:50
  22:45 23.0 21.3 44 3 0.0 0.6 22:45
  22:40 23.1 21.3 43 3 0.0 1.4 22:40
  22:35 23.0 21.0 43 3 0.0 1.9 22:35
  22:30 23.0 21.0 43 3 0.0 0.8 22:30
  22:25 23.2 21.2 42 3 0.0 1.2 22:25
  22:20 23.1 21.0 43 3 0.0 1.6 22:20
  22:15 22.8 20.7 43 3 0.0 1.5 22:15
  22:10 22.6 20.4 44 3 0.0 1.2 22:10
  22:05 22.4 20.1 44 3 0.0 1.3 22:05
  22:00 22.1 19.5 46 3 0.0 1.1 22:00
22.04.2018 21:55 22.1 19.6 46 3 0.0 0.1 21:55
  21:50 22.3 19.8 45 3 0.0 0.4 21:50
  21:45 22.6 20.1 44 3 0.0 0.4 21:45
  21:40 22.6 20.4 45 3 0.0 0.6 21:40
  21:35 22.9 20.6 44 3 0.0 0.5 21:35
  21:30 23.0 20.9 43 3 0.0 1.1 21:30
  21:25 23.2 21.5 42 3 0.0 1.4 21:25
  21:20 23.2 21.3 42 3 0.0 1.5 21:20
  21:15 23.2 21.3 42 3 0.0 1.9 21:15
  21:10 23.0 20.6 42 3 0.0 2.2 21:10
  21:05 22.4 19.7 44 3 0.0 1.9 21:05
  21:00 22.4 19.6 44 3 0.0 0.4 21:00
  20:55 22.6 20.1 44 3 0.0 0.8 20:55
  20:50 22.7 20.1 44 3 0.0 1.5 20:50
  20:45 22.7 19.9 44 3 0.0 0.7 20:45
  20:40 22.8 20.2 44 3 0.0 0.2 20:40
  20:35 23.3 21.0 44 3 0.0 0.6 20:35
  20:30 23.5 21.1 43 3 0.0 1.4 20:30
  20:25 23.5 20.8 43 3 0.0 1.5 20:25
  20:20 23.7 20.8 43 3 0.0 1.0 20:20
  20:15 23.9 20.9 42 3 0.0 0.9 20:15
  20:10 24.0 20.9 42 3 0.0 0.9 20:10
  20:05 24.3 21.4 42 3 0.0 0.2 20:05
  20:00 24.5 21.6 42 3 0.0 1.2 20:00
22.04.2018 19:55 24.7 22.0 41 3 0.0 0.5 19:55
  19:50 25.1 22.7 41 3 0.0 0.3 19:50
  19:45 25.4 23.0 40 3 0.0 1.0 19:45
  19:40 25.5 23.0 39 3 0.0 1.0 19:40
  19:35 26.0 24.1 39 3 0.0 2.1 19:35
  19:30 26.1 24.1 38 4 0.0 1.9 19:30
  19:25 26.1 24.1 38 4 0.0 1.3 19:25
  19:20 26.1 24.7 38 4 0.0 1.0 19:20
  19:15 26.3 24.8 38 4 0.0 1.4 19:15
  19:10 26.4 25.0 37 4 0.0 0.9 19:10
  19:05 26.5 25.3 37 4 0.0 1.0 19:05
  19:00 26.6 25.6 37 4 0.0 1.2 19:00
  18:55 26.7 25.7 37 4 0.0 1.6 18:55
  18:50 26.7 25.7 37 4 0.0 1.4 18:50
  18:45 26.6 25.4 38 4 0.0 1.0 18:45
  18:40 26.6 25.5 38 4 0.0 0.9 18:40
  18:35 26.7 25.5 37 4 0.0 0.9 18:35
  18:30 26.7 25.6 37 4 0.0 0.9 18:30
  18:25 26.8 25.6 37 4 0.0 1.4 18:25
  18:20 26.8 25.6 37 4 0.0 1.2 18:20
  18:15 27.0 25.8 36 4 0.0 1.1 18:15
  18:10 27.3 26.0 36 4 0.0 1.5 18:10
  18:05 27.4 26.3 36 4 0.0 1.5 18:05
  18:00 27.5 26.1 36 4 0.0 0.9 18:00
22.04.2018 17:55 27.9 26.6 35 4 0.0 1.3 17:55
  17:50 28.2 27.0 35 4 0.0 1.3 17:50
  17:45 28.5 27.4 35 4 0.0 1.5 17:45
  17:40 28.7 27.6 34 4 0.0 1.5 17:40
  17:35 28.9 27.8 34 4 0.0 1.8 17:35
  17:30 28.6 27.5 34 4 0.0 1.9 17:30
  17:25 28.6 27.5 34 4 0.0 2.0 17:25
  17:20 29.0 28.0 34 4 0.0 2.0 17:20
  17:15 29.7 29.0 36 5 0.0 1.4 17:15
  17:10 29.9 30.0 36 5 0.0 2.5 17:10
  17:05 29.9 30.3 36 5 0.0 3.5 17:05
  17:00 29.9 29.6 37 5 0.0 2.8 17:00
  16:55 29.3 29.4 37 5 0.0 2.6 16:55
  16:50 29.3 29.4 36 5 0.0 3.7 16:50
  16:45 29.6 29.6 37 5 0.0 3.2 16:45
  16:40 29.5 29.5 38 5 0.0 3.7 16:40
  16:35 29.5 29.4 39 5 0.0 3.0 16:35
  16:30 29.5 29.6 40 5 0.0 3.8 16:30
  16:25 29.4 29.8 40 5 0.0 4.1 16:25
  16:20 29.4 29.8 40 5 0.0 4.6 16:20
  16:15 29.5 29.8 39 5 0.0 4.2 16:15
  16:10 29.2 29.6 40 5 0.0 4.0 16:10
  16:05 29.0 29.2 40 5 0.0 4.5 16:05
  16:00 28.8 28.9 41 5 0.0 5.1 16:00
22.04.2018 15:55 28.9 28.9 40 5 0.0 4.4 15:55
  15:50 28.8 29.0 40 5 0.0 4.3 15:50
  15:45 28.9 29.2 41 5 0.0 4.1 15:45
  15:40 28.8 28.8 41 5 0.0 3.7 15:40
  15:35 28.6 28.4 42 5 0.0 4.5 15:35
  15:30 27.4 26.3 43 12 0.1 4.1 15:30
  15:25 26.8 25.9 43 38 0.3 4.6 15:25
  15:20 29.0 29.6 39 6 0.0 4.0 15:20
  15:15 28.9 29.5 39 5 0.0 3.3 15:15
  15:10 28.8 29.5 39 5 0.0 3.4 15:10
  15:05 29.4 30.4 38 5 0.0 3.1 15:05
  15:00 29.6 30.7 38 5 0.0 3.4 15:00
  14:55 29.7 30.9 38 5 0.0 3.6 14:55
  14:50 29.4 30.8 39 5 0.0 3.1 14:50
  14:45 29.5 30.9 40 5 0.0 3.4 14:45
  14:40 29.4 31.4 40 5 0.0 3.1 14:40
  14:35 29.4 31.8 41 6 0.0 3.4 14:35
  14:30 29.1 30.9 44 6 0.0 3.1 14:30
  14:25 28.8 30.8 44 6 0.0 2.0 14:25
  14:20 29.2 31.6 44 6 0.0 2.8 14:20
  14:15 28.7 31.3 45 6 0.0 3.2 14:15
  14:10 28.6 31.3 45 6 0.0 2.8 14:10
  14:05 29.0 31.4 46 6 0.0 3.2 14:05
  14:00 28.8 31.3 47 6 0.0 3.4 14:00
22.04.2018 13:55 28.5 30.8 47 6 0.0 3.2 13:55
  13:50 28.4 30.9 47 6 0.0 2.9 13:50
  13:45 28.6 31.2 48 6 0.0 3.2 13:45
  13:40 28.0 30.7 48 6 0.0 3.0 13:40
  13:35 28.0 30.5 48 6 0.0 2.5 13:35
  13:30 27.7 30.5 48 6 0.0 2.3 13:30
  13:25 27.4 29.6 50 6 0.0 2.1 13:25
  13:20 27.5 29.8 50 6 0.0 2.5 13:20
  13:15 27.5 30.1 50 6 0.0 3.0 13:15
  13:10 26.9 29.3 51 6 0.0 2.0 13:10
  13:05 27.0 29.6 50 6 0.0 2.4 13:05
  13:00 26.6 29.1 50 6 0.0 2.1 13:00
  12:55 27.1 29.5 51 6 0.0 2.2 12:55
  12:50 26.5 29.1 51 6 0.0 2.0 12:50
  12:45 26.6 28.9 51 6 0.0 2.2 12:45
  12:40 26.2 28.1 51 6 0.0 1.6 12:40
  12:35 26.3 28.6 52 6 0.0 1.7 12:35
  12:30 25.5 27.6 52 6 0.0 1.5 12:30
  12:25 25.6 28.0 52 6 0.0 1.7 12:25
  12:20 25.5 28.0 52 6 0.0 2.1 12:20
  12:15 25.1 27.3 53 6 0.0 1.8 12:15
  12:10 25.2 27.1 53 6 0.0 1.7 12:10
  12:05 25.2 27.5 53 6 0.0 1.8 12:05
  12:00 24.8 26.6 53 6 0.0 1.1 12:00
22.04.2018 11:55 24.5 26.6 53 6 0.0 1.4 11:55
  11:50 24.2 26.4 53 6 0.0 1.4 11:50
  11:45 24.2 26.4 54 7 0.0 1.2 11:45
  11:40 24.3 26.8 54 6 0.0 2.1 11:40
  11:35 24.3 26.4 54 6 0.0 1.9 11:35
  11:30 23.7 25.8 55 6 0.0 1.3 11:30
  11:25 23.5 25.6 56 6 0.0 1.5 11:25
  11:20 23.4 25.7 56 6 0.0 1.8 11:20
  11:15 23.0 25.2 57 6 0.0 1.4 11:15
  11:10 23.1 25.3 57 6 0.0 1.7 11:10
  11:05 22.7 24.8 58 6 0.0 1.5 11:05
  11:00 22.1 24.0 58 6 0.0 1.4 11:00
  10:55 22.4 23.9 59 7 0.0 0.7 10:55
  10:50 21.7 23.9 59 6 0.0 1.3 10:50
  10:45 21.5 23.6 59 6 0.0 1.2 10:45
  10:40 21.5 23.7 59 6 0.0 1.4 10:40
  10:35 21.2 23.3 59 6 0.0 1.1 10:35
  10:30 21.4 23.9 59 6 0.0 1.3 10:30
  10:25 21.6 23.6 60 7 0.0 1.2 10:25
  10:20 21.5 24.0 60 6 0.0 1.7 10:20
  10:15 21.1 23.5 61 6 0.0 1.7 10:15
  10:10 21.0 23.5 61 6 2.6 1.7 10:10
  10:05 20.8 23.1 62 6 0.0 1.3 10:05
  10:00 20.4 22.8 62 6 0.0 1.6 10:00
22.04.2018 09:55 19.9 22.0 62 6 0.0 1.2 09:55
  09:50 20.3 22.7 62 6 0.0 2.0 09:50
  09:45 20.3 22.7 62 6 0.0 2.2 09:45
  09:40 20.1 22.5 61 6 0.0 2.0 09:40
  09:35 19.9 22.0 61 6 0.0 1.5 09:35
  09:30 19.1 20.5 61 7 0.0 0.4 09:30
  09:25 19.0 19.6 62 7 0.0 0.0 09:25
  09:20 19.2 19.5 63 7 0.0 0.0 09:20
  09:15 18.6 19.2 63 7 0.0 0.1 09:15
  09:10 18.7 19.2 66 7 0.0 0.0 09:10
  09:05 18.3 19.3 66 7 0.0 0.2 09:05
  09:00 17.8 18.8 66 7 0.0 0.3 09:00
  08:55 17.7 18.3 66 7 0.0 0.1 08:55
  08:50 17.6 18.2 67 7 0.0 0.1 08:50
  08:45 17.3 18.0 68 7 0.0 0.0 08:45
  08:40 17.3 17.8 69 7 0.0 0.2 08:40
  08:35 17.2 18.0 71 7 0.0 0.0 08:35
  08:30 16.8 17.3 71 7 0.0 0.3 08:30
  08:25 16.5 16.9 71 7 0.0 0.0 08:25
  08:20 16.7 16.7 72 7 0.0 0.0 08:20
  08:15 16.3 16.6 74 7 0.0 0.0 08:15
  08:10 15.8 16.3 75 7 0.0 0.0 08:10
  08:05 15.6 16.1 76 7 0.0 0.0 08:05
  08:00 15.1 15.8 77 7 0.0 0.0 08:00
22.04.2018 07:55 14.9 15.2 79 7 0.0 0.0 07:55
  07:50 14.5 14.9 80 8 0.0 0.0 07:50
  07:45 14.3 14.6 81 9 0.0 0.0 07:45
  07:40 14.3 14.2 83 10 0.0 0.0 07:40
  07:35 13.8 13.5 85 10 0.0 0.0 07:35
  07:30 13.4 13.0 86 11 0.0 0.0 07:30
  07:25 13.0 12.5 87 14 0.0 0.0 07:25
  07:20 12.6 12.0 88 19 0.0 0.0 07:20
  07:15 11.9 11.2 88 76 0.0 0.0 07:15
  07:10 11.6 10.6 89 100 0.0 0.0 07:10
  07:05 11.3 10.2 89 100 0.0 0.0 07:05
  07:00 10.9 9.5 89 100 0.0 0.0 07:00
  06:55 10.9 9.3 89 100 0.0 0.0 06:55
  06:50 11.0 9.3 90 100 0.0 0.0 06:50
  06:45 11.1 9.2 91 100 0.0 0.0 06:45
  06:40 10.9 9.1 91 100 0.0 0.0 06:40
  06:35 10.7 9.0 90 100 0.0 0.0 06:35
  06:30 10.7 9.0 89 100 0.0 0.0 06:30
  06:25 10.9 9.1 88 100 0.0 0.0 06:25
  06:20 11.2 9.2 88 100 0.0 0.0 06:20
  06:15 11.4 9.4 87 100 0.0 0.0 06:15
  06:10 11.9 9.6 89 100 0.0 0.0 06:10
  06:05 11.7 9.3 89 100 0.0 0.1 06:05
  06:00 11.9 9.1 89 100 0.0 0.0 06:00
22.04.2018 05:55 11.8 9.0 88 100 0.0 0.0 05:55
  05:50 11.6 9.0 87 100 0.0 0.0 05:50
  05:45 11.8 9.2 88 100 0.0 0.0 05:45
  05:40 11.8 9.2 88 100 0.0 0.0 05:40
  05:35 12.0 9.3 88 100 0.0 0.0 05:35
  05:30 12.0 9.4 88 100 0.0 0.0 05:30
  05:25 11.7 9.4 87 100 0.0 0.0 05:25
  05:20 11.6 9.6 87 100 0.0 0.0 05:20
  05:15 11.7 9.7 86 100 0.0 0.0 05:15
  05:10 11.8 9.9 84 100 0.0 0.0 05:10
  05:05 12.1 10.1 85 100 0.0 0.0 05:05
  05:00 12.3 10.3 84 100 0.0 0.0 05:00
  04:55 12.7 10.5 83 100 0.0 0.0 04:55
  04:50 13.2 10.8 84 100 0.0 0.0 04:50
  04:45 13.2 10.9 84 100 0.0 0.0 04:45
  04:40 13.2 10.8 84 100 0.0 0.0 04:40
  04:35 12.8 10.5 84 100 0.0 0.0 04:35
  04:30 12.8 10.2 82 100 0.0 0.1 04:30
  04:25 13.0 10.3 82 100 0.0 0.0 04:25
  04:20 13.1 10.5 82 100 0.0 0.0 04:20
  04:15 13.6 10.5 83 99 0.0 0.0 04:15
  04:10 13.1 10.0 83 100 0.0 0.0 04:10
  04:05 12.8 9.8 82 100 0.0 0.0 04:05
  04:00 12.7 9.9 81 100 0.0 0.0 04:00
22.04.2018 03:55 12.8 10.0 81 100 0.0 0.0 03:55
  03:50 12.9 10.1 81 100 0.0 0.0 03:50
  03:45 13.2 10.2 81 100 0.0 0.0 03:45
  03:40 13.1 10.2 82 100 0.0 0.0 03:40
  03:35 13.1 10.4 82 100 0.0 0.0 03:35
  03:30 13.1 10.5 82 100 0.0 0.0 03:30
  03:25 13.1 10.6 81 100 0.0 0.0 03:25
    Temp.
(2 m)
Temp.
(20 cm)
Luftfeuchte Blattnässe Nieder-
schlag
Wind  
[°C] [°C] [%] [%] [mm] [m/s]
 
  Ø 21.4 20.7 56 20 - 1.1 Ø
  Min. 10.7 9.0 - - - - Min.
  Max. 29.9 31.8 - - - - Max.
  - - - - 3.0 -
Quelle: Agrarmeteorologie Rheinland-Pfalz,
alle Angaben ohne Gewähr!
Zuletzt geändert: 23.04.18 - 03:40 Uhr